sensor_id;sensor_type;location;lat;lon;timestamp;P1;durP1;ratioP1;P2;durP2;ratioP2
18999;SDS011;9633;50.980;13.850;2023-07-13T00:00:11;3.53;;;2.50;;
18999;SDS011;9633;50.980;13.850;2023-07-13T00:01:48;2.50;;;2.30;;
18999;SDS011;9633;50.980;13.850;2023-07-13T00:03:21;2.83;;;2.43;;
18999;SDS011;9633;50.980;13.850;2023-07-13T00:04:54;2.70;;;2.50;;
18999;SDS011;9633;50.980;13.850;2023-07-13T00:06:28;2.40;;;2.10;;
18999;SDS011;9633;50.980;13.850;2023-07-13T00:08:04;2.87;;;2.10;;
18999;SDS011;9633;50.980;13.850;2023-07-13T00:09:36;3.03;;;2.20;;
18999;SDS011;9633;50.980;13.850;2023-07-13T00:11:10;2.40;;;2.20;;
18999;SDS011;9633;50.980;13.850;2023-07-13T00:12:43;2.53;;;2.27;;
18999;SDS011;9633;50.980;13.850;2023-07-13T00:14:16;3.03;;;2.17;;
18999;SDS011;9633;50.980;13.850;2023-07-13T00:15:49;2.90;;;2.43;;
18999;SDS011;9633;50.980;13.850;2023-07-13T00:17:22;2.80;;;2.40;;
18999;SDS011;9633;50.980;13.850;2023-07-13T00:18:55;3.33;;;2.57;;
18999;SDS011;9633;50.980;13.850;2023-07-13T00:20:27;3.63;;;2.40;;
18999;SDS011;9633;50.980;13.850;2023-07-13T00:22:02;3.43;;;2.13;;
18999;SDS011;9633;50.980;13.850;2023-07-13T00:23:35;3.03;;;2.50;;
18999;SDS011;9633;50.980;13.850;2023-07-13T00:25:11;3.37;;;2.33;;
18999;SDS011;9633;50.980;13.850;2023-07-13T00:26:47;2.50;;;2.30;;
18999;SDS011;9633;50.980;13.850;2023-07-13T00:28:19;2.30;;;2.00;;
18999;SDS011;9633;50.980;13.850;2023-07-13T00:29:53;3.07;;;2.17;;
18999;SDS011;9633;50.980;13.850;2023-07-13T00:31:25;3.10;;;2.13;;
18999;SDS011;9633;50.980;13.850;2023-07-13T00:32:58;3.83;;;1.97;;
18999;SDS011;9633;50.980;13.850;2023-07-13T00:34:47;3.23;;;2.37;;
18999;SDS011;9633;50.980;13.850;2023-07-13T00:36:22;4.13;;;2.40;;
18999;SDS011;9633;50.980;13.850;2023-07-13T00:37:56;5.83;;;2.10;;
18999;SDS011;9633;50.980;13.850;2023-07-13T00:39:29;2.97;;;2.50;;
18999;SDS011;9633;50.980;13.850;2023-07-13T00:41:01;4.10;;;2.70;;
18999;SDS011;9633;50.980;13.850;2023-07-13T00:42:35;5.00;;;3.03;;
18999;SDS011;9633;50.980;13.850;2023-07-13T00:44:09;3.90;;;2.90;;
18999;SDS011;9633;50.980;13.850;2023-07-13T00:47:45;5.63;;;3.17;;
18999;SDS011;9633;50.980;13.850;2023-07-13T00:49:20;4.90;;;3.20;;
18999;SDS011;9633;50.980;13.850;2023-07-13T00:50:56;4.63;;;3.63;;
18999;SDS011;9633;50.980;13.850;2023-07-13T00:52:32;4.43;;;3.03;;
18999;SDS011;9633;50.980;13.850;2023-07-13T00:54:09;6.30;;;4.03;;
18999;SDS011;9633;50.980;13.850;2023-07-13T00:55:45;7.43;;;4.40;;
18999;SDS011;9633;50.980;13.850;2023-07-13T00:57:20;6.67;;;4.07;;
18999;SDS011;9633;50.980;13.850;2023-07-13T00:58:54;6.20;;;4.80;;
18999;SDS011;9633;50.980;13.850;2023-07-13T01:00:28;10.10;;;4.43;;
18999;SDS011;9633;50.980;13.850;2023-07-13T01:02:02;5.73;;;4.70;;
18999;SDS011;9633;50.980;13.850;2023-07-13T01:03:36;5.57;;;4.37;;
18999;SDS011;9633;50.980;13.850;2023-07-13T01:05:09;6.07;;;4.53;;
18999;SDS011;9633;50.980;13.850;2023-07-13T01:06:43;7.10;;;4.63;;
18999;SDS011;9633;50.980;13.850;2023-07-13T01:08:18;6.60;;;4.53;;
18999;SDS011;9633;50.980;13.850;2023-07-13T01:09:52;4.90;;;4.40;;
18999;SDS011;9633;50.980;13.850;2023-07-13T01:11:25;7.90;;;4.77;;
18999;SDS011;9633;50.980;13.850;2023-07-13T01:12:59;5.63;;;5.10;;
18999;SDS011;9633;50.980;13.850;2023-07-13T01:14:32;6.07;;;5.33;;
18999;SDS011;9633;50.980;13.850;2023-07-13T01:16:11;7.70;;;5.47;;
18999;SDS011;9633;50.980;13.850;2023-07-13T01:17:50;6.20;;;4.83;;
18999;SDS011;9633;50.980;13.850;2023-07-13T01:19:26;7.70;;;5.60;;
18999;SDS011;9633;50.980;13.850;2023-07-13T01:21:09;6.50;;;5.07;;
18999;SDS011;9633;50.980;13.850;2023-07-13T01:22:44;6.20;;;4.33;;
18999;SDS011;9633;50.980;13.850;2023-07-13T01:24:17;7.13;;;5.13;;
18999;SDS011;9633;50.980;13.850;2023-07-13T01:25:52;6.37;;;5.03;;
18999;SDS011;9633;50.980;13.850;2023-07-13T01:27:26;6.87;;;4.77;;
18999;SDS011;9633;50.980;13.850;2023-07-13T01:28:59;6.70;;;4.70;;
18999;SDS011;9633;50.980;13.850;2023-07-13T01:30:33;5.33;;;4.83;;
18999;SDS011;9633;50.980;13.850;2023-07-13T01:32:07;5.63;;;4.90;;
18999;SDS011;9633;50.980;13.850;2023-07-13T01:33:40;5.97;;;4.40;;
18999;SDS011;9633;50.980;13.850;2023-07-13T01:35:13;6.10;;;4.80;;
18999;SDS011;9633;50.980;13.850;2023-07-13T01:36:49;5.93;;;5.13;;
18999;SDS011;9633;50.980;13.850;2023-07-13T01:38:25;9.40;;;5.43;;
18999;SDS011;9633;50.980;13.850;2023-07-13T01:39:57;6.37;;;5.60;;
18999;SDS011;9633;50.980;13.850;2023-07-13T01:41:31;7.50;;;5.73;;
18999;SDS011;9633;50.980;13.850;2023-07-13T01:43:04;7.17;;;5.70;;
18999;SDS011;9633;50.980;13.850;2023-07-13T01:44:37;6.50;;;5.37;;
18999;SDS011;9633;50.980;13.850;2023-07-13T01:46:11;5.77;;;5.00;;
18999;SDS011;9633;50.980;13.850;2023-07-13T01:47:54;6.37;;;5.43;;
18999;SDS011;9633;50.980;13.850;2023-07-13T01:49:26;7.33;;;5.67;;
18999;SDS011;9633;50.980;13.850;2023-07-13T01:50:59;7.60;;;5.90;;
18999;SDS011;9633;50.980;13.850;2023-07-13T01:52:34;5.90;;;4.97;;
18999;SDS011;9633;50.980;13.850;2023-07-13T01:54:06;8.13;;;5.30;;
18999;SDS011;9633;50.980;13.850;2023-07-13T01:55:39;7.13;;;5.20;;
18999;SDS011;9633;50.980;13.850;2023-07-13T01:57:12;6.43;;;5.00;;
18999;SDS011;9633;50.980;13.850;2023-07-13T01:58:45;6.23;;;5.63;;
18999;SDS011;9633;50.980;13.850;2023-07-13T02:00:17;5.73;;;5.13;;
18999;SDS011;9633;50.980;13.850;2023-07-13T02:01:51;6.47;;;4.93;;
18999;SDS011;9633;50.980;13.850;2023-07-13T02:03:24;9.40;;;4.93;;
18999;SDS011;9633;50.980;13.850;2023-07-13T02:04:57;7.90;;;5.23;;
18999;SDS011;9633;50.980;13.850;2023-07-13T02:06:30;5.80;;;5.10;;
18999;SDS011;9633;50.980;13.850;2023-07-13T02:08:05;7.97;;;5.23;;
18999;SDS011;9633;50.980;13.850;2023-07-13T02:09:37;6.10;;;5.23;;
18999;SDS011;9633;50.980;13.850;2023-07-13T02:11:10;7.70;;;5.20;;
18999;SDS011;9633;50.980;13.850;2023-07-13T02:12:43;7.10;;;5.57;;
18999;SDS011;9633;50.980;13.850;2023-07-13T02:14:17;7.73;;;5.20;;
18999;SDS011;9633;50.980;13.850;2023-07-13T02:15:49;5.97;;;5.37;;
18999;SDS011;9633;50.980;13.850;2023-07-13T02:17:23;5.37;;;4.60;;
18999;SDS011;9633;50.980;13.850;2023-07-13T02:18:55;5.83;;;5.23;;
18999;SDS011;9633;50.980;13.850;2023-07-13T02:20:29;6.20;;;5.60;;
18999;SDS011;9633;50.980;13.850;2023-07-13T02:22:01;6.03;;;4.90;;
18999;SDS011;9633;50.980;13.850;2023-07-13T02:23:36;6.43;;;5.40;;
18999;SDS011;9633;50.980;13.850;2023-07-13T02:25:08;5.90;;;5.30;;
18999;SDS011;9633;50.980;13.850;2023-07-13T02:26:41;5.80;;;5.17;;
18999;SDS011;9633;50.980;13.850;2023-07-13T02:28:13;6.93;;;5.13;;
18999;SDS011;9633;50.980;13.850;2023-07-13T02:29:47;5.30;;;4.80;;
18999;SDS011;9633;50.980;13.850;2023-07-13T02:31:19;6.03;;;5.43;;
18999;SDS011;9633;50.980;13.850;2023-07-13T02:32:52;5.60;;;5.00;;
18999;SDS011;9633;50.980;13.850;2023-07-13T02:34:25;6.13;;;5.40;;
18999;SDS011;9633;50.980;13.850;2023-07-13T02:35:58;6.00;;;5.10;;
18999;SDS011;9633;50.980;13.850;2023-07-13T02:37:31;5.77;;;5.20;;
18999;SDS011;9633;50.980;13.850;2023-07-13T02:39:05;6.63;;;5.40;;
18999;SDS011;9633;50.980;13.850;2023-07-13T02:40:40;6.03;;;5.33;;
18999;SDS011;9633;50.980;13.850;2023-07-13T02:42:13;6.47;;;5.10;;
18999;SDS011;9633;50.980;13.850;2023-07-13T02:43:46;5.97;;;5.07;;
18999;SDS011;9633;50.980;13.850;2023-07-13T02:45:20;6.27;;;5.67;;
18999;SDS011;9633;50.980;13.850;2023-07-13T02:46:53;7.27;;;5.30;;
18999;SDS011;9633;50.980;13.850;2023-07-13T02:48:25;6.10;;;5.50;;
18999;SDS011;9633;50.980;13.850;2023-07-13T02:49:58;5.70;;;5.00;;
18999;SDS011;9633;50.980;13.850;2023-07-13T02:51:32;6.03;;;5.23;;
18999;SDS011;9633;50.980;13.850;2023-07-13T02:53:05;7.20;;;5.43;;
18999;SDS011;9633;50.980;13.850;2023-07-13T02:54:40;5.97;;;5.10;;
18999;SDS011;9633;50.980;13.850;2023-07-13T02:56:14;5.57;;;5.10;;
18999;SDS011;9633;50.980;13.850;2023-07-13T02:57:48;7.43;;;5.47;;
18999;SDS011;9633;50.980;13.850;2023-07-13T02:59:22;6.37;;;5.10;;
18999;SDS011;9633;50.980;13.850;2023-07-13T03:00:55;6.60;;;5.50;;
18999;SDS011;9633;50.980;13.850;2023-07-13T03:02:30;5.90;;;5.30;;
18999;SDS011;9633;50.980;13.850;2023-07-13T03:04:03;5.50;;;5.00;;
18999;SDS011;9633;50.980;13.850;2023-07-13T03:05:41;6.20;;;5.60;;
18999;SDS011;9633;50.980;13.850;2023-07-13T03:07:14;5.73;;;5.10;;
18999;SDS011;9633;50.980;13.850;2023-07-13T03:08:50;5.57;;;4.87;;
18999;SDS011;9633;50.980;13.850;2023-07-13T03:10:24;5.90;;;5.30;;
18999;SDS011;9633;50.980;13.850;2023-07-13T03:11:57;6.00;;;5.33;;
18999;SDS011;9633;50.980;13.850;2023-07-13T03:13:33;6.07;;;5.50;;
18999;SDS011;9633;50.980;13.850;2023-07-13T03:15:09;6.23;;;5.23;;
18999;SDS011;9633;50.980;13.850;2023-07-13T03:16:43;6.43;;;5.87;;
18999;SDS011;9633;50.980;13.850;2023-07-13T03:18:17;6.43;;;5.80;;
18999;SDS011;9633;50.980;13.850;2023-07-13T03:19:49;6.23;;;5.57;;
18999;SDS011;9633;50.980;13.850;2023-07-13T03:21:23;5.90;;;5.30;;
18999;SDS011;9633;50.980;13.850;2023-07-13T03:22:55;5.90;;;5.20;;
18999;SDS011;9633;50.980;13.850;2023-07-13T03:24:28;5.53;;;5.03;;
18999;SDS011;9633;50.980;13.850;2023-07-13T03:26:04;5.40;;;4.90;;
18999;SDS011;9633;50.980;13.850;2023-07-13T03:27:38;5.77;;;5.03;;
18999;SDS011;9633;50.980;13.850;2023-07-13T03:29:12;5.70;;;5.20;;
18999;SDS011;9633;50.980;13.850;2023-07-13T03:30:45;6.20;;;5.60;;
18999;SDS011;9633;50.980;13.850;2023-07-13T03:32:19;7.40;;;5.43;;
18999;SDS011;9633;50.980;13.850;2023-07-13T03:33:52;7.73;;;5.83;;
18999;SDS011;9633;50.980;13.850;2023-07-13T03:35:25;7.07;;;5.57;;
18999;SDS011;9633;50.980;13.850;2023-07-13T03:36:57;7.63;;;6.13;;
18999;SDS011;9633;50.980;13.850;2023-07-13T03:38:31;7.47;;;5.57;;
18999;SDS011;9633;50.980;13.850;2023-07-13T03:40:06;7.23;;;6.03;;
18999;SDS011;9633;50.980;13.850;2023-07-13T03:41:42;6.77;;;5.90;;
18999;SDS011;9633;50.980;13.850;2023-07-13T03:43:15;6.20;;;5.60;;
18999;SDS011;9633;50.980;13.850;2023-07-13T03:44:48;6.50;;;5.90;;
18999;SDS011;9633;50.980;13.850;2023-07-13T03:46:24;5.80;;;5.30;;
18999;SDS011;9633;50.980;13.850;2023-07-13T03:47:57;7.40;;;6.23;;
18999;SDS011;9633;50.980;13.850;2023-07-13T03:49:30;6.77;;;5.40;;
18999;SDS011;9633;50.980;13.850;2023-07-13T03:51:04;6.33;;;5.83;;
18999;SDS011;9633;50.980;13.850;2023-07-13T03:52:36;6.67;;;6.07;;
18999;SDS011;9633;50.980;13.850;2023-07-13T03:54:09;6.00;;;5.40;;
18999;SDS011;9633;50.980;13.850;2023-07-13T03:55:42;6.47;;;5.87;;
18999;SDS011;9633;50.980;13.850;2023-07-13T03:57:18;6.63;;;5.60;;
18999;SDS011;9633;50.980;13.850;2023-07-13T03:58:51;6.90;;;6.20;;
18999;SDS011;9633;50.980;13.850;2023-07-13T04:00:25;6.60;;;5.97;;
18999;SDS011;9633;50.980;13.850;2023-07-13T04:01:58;6.67;;;5.57;;
18999;SDS011;9633;50.980;13.850;2023-07-13T04:03:37;6.40;;;5.50;;
18999;SDS011;9633;50.980;13.850;2023-07-13T04:05:10;6.00;;;5.40;;
18999;SDS011;9633;50.980;13.850;2023-07-13T04:06:44;6.83;;;5.63;;
18999;SDS011;9633;50.980;13.850;2023-07-13T04:08:17;7.67;;;5.80;;
18999;SDS011;9633;50.980;13.850;2023-07-13T04:09:50;6.30;;;5.70;;
18999;SDS011;9633;50.980;13.850;2023-07-13T04:11:25;7.00;;;6.30;;
18999;SDS011;9633;50.980;13.850;2023-07-13T04:13:00;5.87;;;5.27;;
18999;SDS011;9633;50.980;13.850;2023-07-13T04:14:33;6.93;;;6.13;;
18999;SDS011;9633;50.980;13.850;2023-07-13T04:16:06;7.23;;;6.10;;
18999;SDS011;9633;50.980;13.850;2023-07-13T04:17:38;7.20;;;6.53;;
18999;SDS011;9633;50.980;13.850;2023-07-13T04:19:12;7.20;;;6.60;;
18999;SDS011;9633;50.980;13.850;2023-07-13T04:20:45;6.93;;;6.23;;
18999;SDS011;9633;50.980;13.850;2023-07-13T04:22:18;8.70;;;6.87;;
18999;SDS011;9633;50.980;13.850;2023-07-13T04:23:51;8.97;;;7.80;;
18999;SDS011;9633;50.980;13.850;2023-07-13T04:25:25;8.60;;;7.80;;
18999;SDS011;9633;50.980;13.850;2023-07-13T04:26:57;8.03;;;6.90;;
18999;SDS011;9633;50.980;13.850;2023-07-13T04:28:33;9.53;;;7.03;;
18999;SDS011;9633;50.980;13.850;2023-07-13T04:30:06;8.10;;;7.17;;
18999;SDS011;9633;50.980;13.850;2023-07-13T04:31:41;8.10;;;7.30;;
18999;SDS011;9633;50.980;13.850;2023-07-13T04:33:14;8.43;;;7.27;;
18999;SDS011;9633;50.980;13.850;2023-07-13T04:34:48;7.37;;;6.67;;
18999;SDS011;9633;50.980;13.850;2023-07-13T04:36:25;9.07;;;7.43;;
18999;SDS011;9633;50.980;13.850;2023-07-13T04:37:59;7.50;;;6.80;;
18999;SDS011;9633;50.980;13.850;2023-07-13T04:39:31;9.37;;;6.87;;
18999;SDS011;9633;50.980;13.850;2023-07-13T04:41:07;8.17;;;7.27;;
18999;SDS011;9633;50.980;13.850;2023-07-13T04:42:41;7.57;;;6.87;;
18999;SDS011;9633;50.980;13.850;2023-07-13T04:44:14;7.00;;;6.37;;
18999;SDS011;9633;50.980;13.850;2023-07-13T04:45:48;7.43;;;6.60;;
18999;SDS011;9633;50.980;13.850;2023-07-13T04:47:22;8.93;;;6.87;;
18999;SDS011;9633;50.980;13.850;2023-07-13T04:48:55;10.30;;;6.47;;
18999;SDS011;9633;50.980;13.850;2023-07-13T04:50:28;8.70;;;6.80;;
18999;SDS011;9633;50.980;13.850;2023-07-13T04:52:01;9.07;;;6.77;;
18999;SDS011;9633;50.980;13.850;2023-07-13T04:53:34;7.30;;;6.60;;
18999;SDS011;9633;50.980;13.850;2023-07-13T04:55:08;9.43;;;6.97;;
18999;SDS011;9633;50.980;13.850;2023-07-13T04:56:40;7.67;;;6.87;;
18999;SDS011;9633;50.980;13.850;2023-07-13T04:58:14;7.03;;;6.33;;
18999;SDS011;9633;50.980;13.850;2023-07-13T04:59:47;6.90;;;6.30;;
18999;SDS011;9633;50.980;13.850;2023-07-13T05:01:21;9.20;;;6.87;;
18999;SDS011;9633;50.980;13.850;2023-07-13T05:02:54;8.17;;;6.83;;
18999;SDS011;9633;50.980;13.850;2023-07-13T05:04:27;7.87;;;7.17;;
18999;SDS011;9633;50.980;13.850;2023-07-13T05:06:02;7.47;;;6.37;;
18999;SDS011;9633;50.980;13.850;2023-07-13T05:07:36;7.30;;;6.23;;
18999;SDS011;9633;50.980;13.850;2023-07-13T05:09:09;7.83;;;6.57;;
18999;SDS011;9633;50.980;13.850;2023-07-13T05:10:42;7.23;;;5.43;;
18999;SDS011;9633;50.980;13.850;2023-07-13T05:12:15;8.13;;;7.03;;
18999;SDS011;9633;50.980;13.850;2023-07-13T05:13:47;7.27;;;5.70;;
18999;SDS011;9633;50.980;13.850;2023-07-13T05:15:22;7.03;;;6.10;;
18999;SDS011;9633;50.980;13.850;2023-07-13T05:16:54;6.73;;;5.97;;
18999;SDS011;9633;50.980;13.850;2023-07-13T05:18:28;5.87;;;5.33;;
18999;SDS011;9633;50.980;13.850;2023-07-13T05:20:02;10.10;;;5.97;;
18999;SDS011;9633;50.980;13.850;2023-07-13T05:21:35;5.87;;;5.27;;
18999;SDS011;9633;50.980;13.850;2023-07-13T05:23:08;6.30;;;5.60;;
18999;SDS011;9633;50.980;13.850;2023-07-13T05:24:40;5.67;;;5.17;;
18999;SDS011;9633;50.980;13.850;2023-07-13T05:26:14;5.70;;;5.20;;
18999;SDS011;9633;50.980;13.850;2023-07-13T05:27:47;5.97;;;5.40;;
18999;SDS011;9633;50.980;13.850;2023-07-13T05:29:20;5.17;;;4.77;;
18999;SDS011;9633;50.980;13.850;2023-07-13T05:30:55;5.00;;;4.50;;
18999;SDS011;9633;50.980;13.850;2023-07-13T05:32:27;6.37;;;5.10;;
18999;SDS011;9633;50.980;13.850;2023-07-13T05:34:00;6.30;;;5.13;;
18999;SDS011;9633;50.980;13.850;2023-07-13T05:35:33;5.07;;;4.50;;
18999;SDS011;9633;50.980;13.850;2023-07-13T05:37:07;8.13;;;4.63;;
18999;SDS011;9633;50.980;13.850;2023-07-13T05:38:41;7.13;;;4.80;;
18999;SDS011;9633;50.980;13.850;2023-07-13T05:40:13;5.97;;;4.70;;
18999;SDS011;9633;50.980;13.850;2023-07-13T05:41:46;5.60;;;4.83;;
18999;SDS011;9633;50.980;13.850;2023-07-13T05:43:19;5.10;;;4.60;;
18999;SDS011;9633;50.980;13.850;2023-07-13T05:44:52;6.77;;;4.23;;
18999;SDS011;9633;50.980;13.850;2023-07-13T05:46:26;6.20;;;4.70;;
18999;SDS011;9633;50.980;13.850;2023-07-13T05:47:59;5.53;;;4.50;;
18999;SDS011;9633;50.980;13.850;2023-07-13T05:49:32;5.87;;;4.40;;
18999;SDS011;9633;50.980;13.850;2023-07-13T05:51:05;6.03;;;4.57;;
18999;SDS011;9633;50.980;13.850;2023-07-13T05:52:38;4.90;;;4.10;;
18999;SDS011;9633;50.980;13.850;2023-07-13T05:54:11;4.88;;;4.47;;
18999;SDS011;9633;50.980;13.850;2023-07-13T05:55:44;5.73;;;4.80;;
18999;SDS011;9633;50.980;13.850;2023-07-13T05:57:19;6.13;;;4.93;;
18999;SDS011;9633;50.980;13.850;2023-07-13T05:58:52;4.93;;;4.43;;
18999;SDS011;9633;50.980;13.850;2023-07-13T06:00:25;6.33;;;4.40;;
18999;SDS011;9633;50.980;13.850;2023-07-13T06:01:59;5.80;;;4.23;;
18999;SDS011;9633;50.980;13.850;2023-07-13T06:03:32;3.97;;;3.57;;
18999;SDS011;9633;50.980;13.850;2023-07-13T06:05:05;4.50;;;3.57;;
18999;SDS011;9633;50.980;13.850;2023-07-13T06:06:38;4.57;;;3.43;;
18999;SDS011;9633;50.980;13.850;2023-07-13T06:08:12;4.00;;;3.40;;
18999;SDS011;9633;50.980;13.850;2023-07-13T06:09:44;5.67;;;3.50;;
18999;SDS011;9633;50.980;13.850;2023-07-13T06:11:18;4.97;;;3.30;;
18999;SDS011;9633;50.980;13.850;2023-07-13T06:12:52;5.97;;;3.30;;
18999;SDS011;9633;50.980;13.850;2023-07-13T06:14:25;4.97;;;3.40;;
18999;SDS011;9633;50.980;13.850;2023-07-13T06:15:57;3.77;;;3.20;;
18999;SDS011;9633;50.980;13.850;2023-07-13T06:17:32;4.63;;;3.73;;
18999;SDS011;9633;50.980;13.850;2023-07-13T06:19:05;4.10;;;3.50;;
18999;SDS011;9633;50.980;13.850;2023-07-13T06:20:37;4.87;;;3.10;;
18999;SDS011;9633;50.980;13.850;2023-07-13T06:22:10;4.03;;;3.30;;
18999;SDS011;9633;50.980;13.850;2023-07-13T06:23:43;3.87;;;3.53;;
18999;SDS011;9633;50.980;13.850;2023-07-13T06:25:16;9.37;;;5.03;;
18999;SDS011;9633;50.980;13.850;2023-07-13T06:26:48;8.93;;;7.00;;
18999;SDS011;9633;50.980;13.850;2023-07-13T06:28:22;7.90;;;5.97;;
18999;SDS011;9633;50.980;13.850;2023-07-13T06:29:54;6.87;;;5.30;;
18999;SDS011;9633;50.980;13.850;2023-07-13T06:31:27;5.10;;;4.60;;
18999;SDS011;9633;50.980;13.850;2023-07-13T06:33:01;7.57;;;4.87;;
18999;SDS011;9633;50.980;13.850;2023-07-13T06:34:34;5.73;;;4.20;;
18999;SDS011;9633;50.980;13.850;2023-07-13T06:36:08;6.60;;;3.90;;
18999;SDS011;9633;50.980;13.850;2023-07-13T06:37:40;5.63;;;4.17;;
18999;SDS011;9633;50.980;13.850;2023-07-13T06:39:14;5.50;;;3.67;;
18999;SDS011;9633;50.980;13.850;2023-07-13T06:40:46;4.60;;;3.93;;
18999;SDS011;9633;50.980;13.850;2023-07-13T06:42:19;4.37;;;3.80;;
18999;SDS011;9633;50.980;13.850;2023-07-13T06:43:52;4.97;;;3.20;;
18999;SDS011;9633;50.980;13.850;2023-07-13T06:45:25;5.27;;;3.03;;
18999;SDS011;9633;50.980;13.850;2023-07-13T06:46:58;4.37;;;2.90;;
18999;SDS011;9633;50.980;13.850;2023-07-13T06:48:33;4.80;;;3.00;;
18999;SDS011;9633;50.980;13.850;2023-07-13T06:50:05;4.83;;;3.47;;
18999;SDS011;9633;50.980;13.850;2023-07-13T06:51:39;5.10;;;3.43;;
18999;SDS011;9633;50.980;13.850;2023-07-13T06:53:13;5.03;;;3.17;;
18999;SDS011;9633;50.980;13.850;2023-07-13T06:54:45;4.13;;;3.23;;
18999;SDS011;9633;50.980;13.850;2023-07-13T06:56:18;3.93;;;2.90;;
18999;SDS011;9633;50.980;13.850;2023-07-13T06:57:51;6.03;;;4.87;;
18999;SDS011;9633;50.980;13.850;2023-07-13T06:59:24;5.93;;;3.73;;
18999;SDS011;9633;50.980;13.850;2023-07-13T07:00:57;7.27;;;3.73;;
18999;SDS011;9633;50.980;13.850;2023-07-13T07:02:30;4.87;;;3.33;;
18999;SDS011;9633;50.980;13.850;2023-07-13T07:04:04;4.67;;;3.00;;
18999;SDS011;9633;50.980;13.850;2023-07-13T07:05:38;5.70;;;2.97;;
18999;SDS011;9633;50.980;13.850;2023-07-13T07:07:10;3.90;;;3.20;;
18999;SDS011;9633;50.980;13.850;2023-07-13T07:08:43;3.97;;;3.00;;
18999;SDS011;9633;50.980;13.850;2023-07-13T07:10:16;3.37;;;3.00;;
18999;SDS011;9633;50.980;13.850;2023-07-13T07:11:50;3.93;;;2.80;;
18999;SDS011;9633;50.980;13.850;2023-07-13T07:13:34;5.33;;;3.50;;
18999;SDS011;9633;50.980;13.850;2023-07-13T07:15:08;7.63;;;3.27;;
18999;SDS011;9633;50.980;13.850;2023-07-13T07:16:40;3.97;;;3.43;;
18999;SDS011;9633;50.980;13.850;2023-07-13T07:18:13;3.43;;;3.10;;
18999;SDS011;9633;50.980;13.850;2023-07-13T07:19:47;5.93;;;3.37;;
18999;SDS011;9633;50.980;13.850;2023-07-13T07:21:20;5.67;;;3.50;;
18999;SDS011;9633;50.980;13.850;2023-07-13T07:22:54;4.83;;;3.43;;
18999;SDS011;9633;50.980;13.850;2023-07-13T07:24:28;4.53;;;2.93;;
18999;SDS011;9633;50.980;13.850;2023-07-13T07:26:00;5.10;;;3.00;;
18999;SDS011;9633;50.980;13.850;2023-07-13T07:27:34;5.40;;;3.30;;
18999;SDS011;9633;50.980;13.850;2023-07-13T07:29:09;4.53;;;2.93;;
18999;SDS011;9633;50.980;13.850;2023-07-13T07:30:46;4.47;;;3.30;;
18999;SDS011;9633;50.980;13.850;2023-07-13T07:32:22;4.87;;;2.60;;
18999;SDS011;9633;50.980;13.850;2023-07-13T07:33:58;3.27;;;2.70;;
18999;SDS011;9633;50.980;13.850;2023-07-13T07:35:32;3.90;;;2.33;;
18999;SDS011;9633;50.980;13.850;2023-07-13T07:37:13;3.27;;;2.20;;
18999;SDS011;9633;50.980;13.850;2023-07-13T07:38:48;2.77;;;2.17;;
18999;SDS011;9633;50.980;13.850;2023-07-13T07:40:21;5.10;;;2.70;;
18999;SDS011;9633;50.980;13.850;2023-07-13T07:41:57;3.97;;;2.13;;
18999;SDS011;9633;50.980;13.850;2023-07-13T07:43:30;4.87;;;2.57;;
18999;SDS011;9633;50.980;13.850;2023-07-13T07:45:03;4.10;;;2.72;;
18999;SDS011;9633;50.980;13.850;2023-07-13T07:46:39;3.57;;;2.63;;
18999;SDS011;9633;50.980;13.850;2023-07-13T07:48:12;3.90;;;2.93;;
18999;SDS011;9633;50.980;13.850;2023-07-13T07:49:45;2.83;;;2.50;;
18999;SDS011;9633;50.980;13.850;2023-07-13T07:51:20;3.47;;;2.50;;
18999;SDS011;9633;50.980;13.850;2023-07-13T07:52:52;3.80;;;2.10;;
18999;SDS011;9633;50.980;13.850;2023-07-13T07:54:27;2.80;;;1.83;;
18999;SDS011;9633;50.980;13.850;2023-07-13T07:56:19;2.97;;;2.13;;
18999;SDS011;9633;50.980;13.850;2023-07-13T07:57:56;3.77;;;2.20;;
18999;SDS011;9633;50.980;13.850;2023-07-13T07:59:31;7.63;;;2.20;;
18999;SDS011;9633;50.980;13.850;2023-07-13T08:01:07;5.83;;;1.93;;
18999;SDS011;9633;50.980;13.850;2023-07-13T08:02:43;3.77;;;1.97;;
18999;SDS011;9633;50.980;13.850;2023-07-13T08:04:19;4.57;;;2.10;;
18999;SDS011;9633;50.980;13.850;2023-07-13T08:05:54;3.33;;;1.92;;
18999;SDS011;9633;50.980;13.850;2023-07-13T08:07:49;3.45;;;2.13;;
18999;SDS011;9633;50.980;13.850;2023-07-13T08:09:21;3.08;;;1.92;;
18999;SDS011;9633;50.980;13.850;2023-07-13T08:10:54;2.85;;;2.28;;
18999;SDS011;9633;50.980;13.850;2023-07-13T08:12:33;2.75;;;1.85;;
18999;SDS011;9633;50.980;13.850;2023-07-13T08:14:09;2.03;;;1.80;;
18999;SDS011;9633;50.980;13.850;2023-07-13T08:15:41;3.53;;;2.35;;
18999;SDS011;9633;50.980;13.850;2023-07-13T08:17:15;3.50;;;2.10;;
18999;SDS011;9633;50.980;13.850;2023-07-13T08:18:47;3.27;;;1.73;;
18999;SDS011;9633;50.980;13.850;2023-07-13T08:20:20;22.80;;;7.57;;
18999;SDS011;9633;50.980;13.850;2023-07-13T08:21:52;3.60;;;1.80;;
18999;SDS011;9633;50.980;13.850;2023-07-13T08:23:27;5.53;;;2.33;;
18999;SDS011;9633;50.980;13.850;2023-07-13T08:25:00;4.73;;;2.43;;
18999;SDS011;9633;50.980;13.850;2023-07-13T08:26:34;4.30;;;1.90;;
18999;SDS011;9633;50.980;13.850;2023-07-13T08:28:06;3.40;;;1.97;;
18999;SDS011;9633;50.980;13.850;2023-07-13T08:29:39;3.33;;;1.97;;
18999;SDS011;9633;50.980;13.850;2023-07-13T08:31:12;4.53;;;2.00;;
18999;SDS011;9633;50.980;13.850;2023-07-13T08:32:45;3.67;;;1.80;;
18999;SDS011;9633;50.980;13.850;2023-07-13T08:34:19;3.00;;;1.90;;
18999;SDS011;9633;50.980;13.850;2023-07-13T08:35:53;3.73;;;1.87;;
18999;SDS011;9633;50.980;13.850;2023-07-13T08:37:25;3.53;;;1.77;;
18999;SDS011;9633;50.980;13.850;2023-07-13T08:39:00;2.00;;;1.80;;
18999;SDS011;9633;50.980;13.850;2023-07-13T08:40:34;4.10;;;2.03;;
18999;SDS011;9633;50.980;13.850;2023-07-13T08:42:07;3.67;;;2.30;;
18999;SDS011;9633;50.980;13.850;2023-07-13T08:43:47;5.23;;;1.93;;
18999;SDS011;9633;50.980;13.850;2023-07-13T08:45:27;3.87;;;2.10;;
18999;SDS011;9633;50.980;13.850;2023-07-13T08:47:03;2.87;;;1.70;;
18999;SDS011;9633;50.980;13.850;2023-07-13T08:48:38;2.97;;;1.83;;
18999;SDS011;9633;50.980;13.850;2023-07-13T08:50:17;3.73;;;1.77;;
18999;SDS011;9633;50.980;13.850;2023-07-13T08:51:53;4.25;;;1.85;;
18999;SDS011;9633;50.980;13.850;2023-07-13T08:53:32;3.10;;;1.87;;
18999;SDS011;9633;50.980;13.850;2023-07-13T08:55:14;3.00;;;2.03;;
18999;SDS011;9633;50.980;13.850;2023-07-13T08:56:49;3.30;;;1.70;;
18999;SDS011;9633;50.980;13.850;2023-07-13T08:58:24;3.33;;;2.00;;
18999;SDS011;9633;50.980;13.850;2023-07-13T09:00:00;4.38;;;1.52;;
18999;SDS011;9633;50.980;13.850;2023-07-13T09:01:40;3.88;;;1.50;;
18999;SDS011;9633;50.980;13.850;2023-07-13T09:03:29;3.03;;;1.70;;
18999;SDS011;9633;50.980;13.850;2023-07-13T09:05:12;3.07;;;1.57;;
18999;SDS011;9633;50.980;13.850;2023-07-13T09:06:49;2.97;;;1.43;;
18999;SDS011;9633;50.980;13.850;2023-07-13T09:08:37;1.63;;;1.53;;
18999;SDS011;9633;50.980;13.850;2023-07-13T09:10:20;2.13;;;1.43;;
18999;SDS011;9633;50.980;13.850;2023-07-13T09:11:59;2.03;;;1.70;;
18999;SDS011;9633;50.980;13.850;2023-07-13T09:13:39;1.80;;;1.50;;
18999;SDS011;9633;50.980;13.850;2023-07-13T09:15:24;2.83;;;1.63;;
18999;SDS011;9633;50.980;13.850;2023-07-13T09:17:02;2.13;;;1.60;;
18999;SDS011;9633;50.980;13.850;2023-07-13T09:18:38;2.60;;;1.40;;
18999;SDS011;9633;50.980;13.850;2023-07-13T09:20:17;2.13;;;1.50;;
18999;SDS011;9633;50.980;13.850;2023-07-13T09:21:56;3.43;;;1.50;;
18999;SDS011;9633;50.980;13.850;2023-07-13T09:23:31;5.43;;;2.00;;
18999;SDS011;9633;50.980;13.850;2023-07-13T09:25:04;3.60;;;1.80;;
18999;SDS011;9633;50.980;13.850;2023-07-13T09:26:56;3.03;;;2.00;;
18999;SDS011;9633;50.980;13.850;2023-07-13T09:28:33;3.00;;;1.70;;
18999;SDS011;9633;50.980;13.850;2023-07-13T09:30:17;3.37;;;1.90;;